sensor_id;sensor_type;location;lat;lon;timestamp;temperature;humidity
69715;HTU21D;56981;53.532;49.398;2023-02-15T00:00:31;-8.37;79.95
69715;HTU21D;56981;53.532;49.398;2023-02-15T00:02:57;-8.41;80.27
69715;HTU21D;56981;53.532;49.398;2023-02-15T00:05:23;-8.40;80.27
69715;HTU21D;56981;53.532;49.398;2023-02-15T00:07:49;-8.39;80.16
69715;HTU21D;56981;53.532;49.398;2023-02-15T00:10:15;-8.41;79.58
69715;HTU21D;56981;53.532;49.398;2023-02-15T00:12:42;-8.42;79.18
69715;HTU21D;56981;53.532;49.398;2023-02-15T00:15:08;-8.42;79.04
69715;HTU21D;56981;53.532;49.398;2023-02-15T00:17:34;-8.44;79.43
69715;HTU21D;56981;53.532;49.398;2023-02-15T00:20:00;-8.40;79.60
69715;HTU21D;56981;53.532;49.398;2023-02-15T00:22:26;-8.41;79.69
69715;HTU21D;56981;53.532;49.398;2023-02-15T00:24:52;-8.37;80.13
69715;HTU21D;56981;53.532;49.398;2023-02-15T00:27:18;-8.35;79.53
69715;HTU21D;56981;53.532;49.398;2023-02-15T00:29:46;-8.33;79.82
69715;HTU21D;56981;53.532;49.398;2023-02-15T00:32:13;-8.31;79.80
69715;HTU21D;56981;53.532;49.398;2023-02-15T00:34:39;-8.26;79.91
69715;HTU21D;56981;53.532;49.398;2023-02-15T00:37:05;-8.25;79.14
69715;HTU21D;56981;53.532;49.398;2023-02-15T00:39:31;-8.23;79.07
69715;HTU21D;56981;53.532;49.398;2023-02-15T00:41:57;-8.24;79.09
69715;HTU21D;56981;53.532;49.398;2023-02-15T00:44:23;-8.23;79.60
69715;HTU21D;56981;53.532;49.398;2023-02-15T00:46:49;-8.23;79.57
69715;HTU21D;56981;53.532;49.398;2023-02-15T00:49:15;-8.28;79.37
69715;HTU21D;56981;53.532;49.398;2023-02-15T00:51:41;-8.27;79.74
69715;HTU21D;56981;53.532;49.398;2023-02-15T00:54:07;-8.27;79.46
69715;HTU21D;56981;53.532;49.398;2023-02-15T00:56:33;-8.27;79.18
69715;HTU21D;56981;53.532;49.398;2023-02-15T00:58:59;-8.28;78.50
69715;HTU21D;56981;53.532;49.398;2023-02-15T01:01:25;-8.34;78.36
69715;HTU21D;56981;53.532;49.398;2023-02-15T01:03:52;-8.40;78.10
69715;HTU21D;56981;53.532;49.398;2023-02-15T01:06:18;-8.42;78.39
69715;HTU21D;56981;53.532;49.398;2023-02-15T01:08:45;-8.44;78.42
69715;HTU21D;56981;53.532;49.398;2023-02-15T01:11:14;-8.41;78.92
69715;HTU21D;56981;53.532;49.398;2023-02-15T01:13:41;-8.40;77.62
69715;HTU21D;56981;53.532;49.398;2023-02-15T01:16:07;-8.43;78.05
69715;HTU21D;56981;53.532;49.398;2023-02-15T01:18:34;-8.46;78.40
69715;HTU21D;56981;53.532;49.398;2023-02-15T01:21:09;-8.45;78.53
69715;HTU21D;56981;53.532;49.398;2023-02-15T01:23:35;-8.46;78.12
69715;HTU21D;56981;53.532;49.398;2023-02-15T01:26:04;-8.42;77.79
69715;HTU21D;56981;53.532;49.398;2023-02-15T01:28:31;-8.39;78.06
69715;HTU21D;56981;53.532;49.398;2023-02-15T01:30:57;-8.41;77.81
69715;HTU21D;56981;53.532;49.398;2023-02-15T01:33:23;-8.35;78.75
69715;HTU21D;56981;53.532;49.398;2023-02-15T01:35:49;-8.33;78.50
69715;HTU21D;56981;53.532;49.398;2023-02-15T01:38:21;-8.33;79.12
69715;HTU21D;56981;53.532;49.398;2023-02-15T01:40:50;-8.34;78.74
69715;HTU21D;56981;53.532;49.398;2023-02-15T01:43:16;-8.36;79.08
69715;HTU21D;56981;53.532;49.398;2023-02-15T01:45:46;-8.39;78.58
69715;HTU21D;56981;53.532;49.398;2023-02-15T01:48:20;-8.44;78.94
69715;HTU21D;56981;53.532;49.398;2023-02-15T01:50:55;-8.41;79.80
69715;HTU21D;56981;53.532;49.398;2023-02-15T01:53:31;-8.41;79.52
69715;HTU21D;56981;53.532;49.398;2023-02-15T01:56:02;-8.35;79.46
69715;HTU21D;56981;53.532;49.398;2023-02-15T01:58:32;-8.35;78.69
69715;HTU21D;56981;53.532;49.398;2023-02-15T02:01:00;-8.38;78.85
69715;HTU21D;56981;53.532;49.398;2023-02-15T02:06:15;-8.28;79.04
69715;HTU21D;56981;53.532;49.398;2023-02-15T02:08:42;-8.33;79.08
69715;HTU21D;56981;53.532;49.398;2023-02-15T02:11:11;-8.36;78.63
69715;HTU21D;56981;53.532;49.398;2023-02-15T02:13:42;-8.35;79.29
69715;HTU21D;56981;53.532;49.398;2023-02-15T02:16:28;-8.34;78.72
69715;HTU21D;56981;53.532;49.398;2023-02-15T02:35:38;-8.46;79.68
69715;HTU21D;56981;53.532;49.398;2023-02-15T02:38:11;-8.43;80.05
69715;HTU21D;56981;53.532;49.398;2023-02-15T02:41:21;-8.41;79.65
69715;HTU21D;56981;53.532;49.398;2023-02-15T02:44:01;-8.38;79.63
69715;HTU21D;56981;53.532;49.398;2023-02-15T02:46:41;-8.42;79.17
69715;HTU21D;56981;53.532;49.398;2023-02-15T02:49:10;-8.42;79.43
69715;HTU21D;56981;53.532;49.398;2023-02-15T02:51:37;-8.38;79.31
69715;HTU21D;56981;53.532;49.398;2023-02-15T02:54:05;-8.38;79.42
69715;HTU21D;56981;53.532;49.398;2023-02-15T02:56:43;-8.42;79.26
69715;HTU21D;56981;53.532;49.398;2023-02-15T02:59:20;-8.39;79.57
69715;HTU21D;56981;53.532;49.398;2023-02-15T03:02:01;-8.35;79.84
69715;HTU21D;56981;53.532;49.398;2023-02-15T03:04:40;-8.35;79.23
69715;HTU21D;56981;53.532;49.398;2023-02-15T03:07:12;-8.36;79.47
69715;HTU21D;56981;53.532;49.398;2023-02-15T03:09:45;-8.35;80.17
69715;HTU21D;56981;53.532;49.398;2023-02-15T03:12:17;-8.31;80.13
69715;HTU21D;56981;53.532;49.398;2023-02-15T03:14:48;-8.29;80.33
69715;HTU21D;56981;53.532;49.398;2023-02-15T03:17:17;-8.24;80.46
69715;HTU21D;56981;53.532;49.398;2023-02-15T03:19:45;-8.24;80.40
69715;HTU21D;56981;53.532;49.398;2023-02-15T03:22:17;-8.19;80.53
69715;HTU21D;56981;53.532;49.398;2023-02-15T03:24:51;-8.12;80.59
69715;HTU21D;56981;53.532;49.398;2023-02-15T03:27:25;-8.08;80.47
69715;HTU21D;56981;53.532;49.398;2023-02-15T03:29:56;-8.07;80.19
69715;HTU21D;56981;53.532;49.398;2023-02-15T03:32:25;-8.03;79.92
69715;HTU21D;56981;53.532;49.398;2023-02-15T03:34:51;-8.01;79.70
69715;HTU21D;56981;53.532;49.398;2023-02-15T03:37:43;-8.00;79.85
69715;HTU21D;56981;53.532;49.398;2023-02-15T03:40:57;-8.01;79.61
69715;HTU21D;56981;53.532;49.398;2023-02-15T03:43:49;-8.08;78.75
69715;HTU21D;56981;53.532;49.398;2023-02-15T03:46:23;-8.11;78.85
69715;HTU21D;56981;53.532;49.398;2023-02-15T03:49:03;-8.09;79.01
69715;HTU21D;56981;53.532;49.398;2023-02-15T03:51:33;-8.07;79.04
69715;HTU21D;56981;53.532;49.398;2023-02-15T03:54:26;-8.10;78.94
69715;HTU21D;56981;53.532;49.398;2023-02-15T03:57:16;-8.11;79.04
69715;HTU21D;56981;53.532;49.398;2023-02-15T04:00:25;-8.09;78.74
69715;HTU21D;56981;53.532;49.398;2023-02-15T04:05:57;-8.08;79.49
69715;HTU21D;56981;53.532;49.398;2023-02-15T04:08:23;-8.06;79.56
69715;HTU21D;56981;53.532;49.398;2023-02-15T04:11:09;-8.01;79.10
69715;HTU21D;56981;53.532;49.398;2023-02-15T04:13:35;-7.96;79.59
69715;HTU21D;56981;53.532;49.398;2023-02-15T04:16:01;-8.04;79.56
69715;HTU21D;56981;53.532;49.398;2023-02-15T04:18:35;-8.06;79.53
69715;HTU21D;56981;53.532;49.398;2023-02-15T04:21:21;-8.03;79.85
69715;HTU21D;56981;53.532;49.398;2023-02-15T04:24:06;-8.08;79.04
69715;HTU21D;56981;53.532;49.398;2023-02-15T04:26:51;-8.13;79.29
69715;HTU21D;56981;53.532;49.398;2023-02-15T04:29:21;-8.15;79.91
69715;HTU21D;56981;53.532;49.398;2023-02-15T04:31:48;-8.21;79.87
69715;HTU21D;56981;53.532;49.398;2023-02-15T04:34:14;-8.29;80.12
69715;HTU21D;56981;53.532;49.398;2023-02-15T04:36:41;-8.33;79.88
69715;HTU21D;56981;53.532;49.398;2023-02-15T04:39:08;-8.38;79.84
69715;HTU21D;56981;53.532;49.398;2023-02-15T04:41:34;-8.41;79.96
69715;HTU21D;56981;53.532;49.398;2023-02-15T04:44:00;-8.38;79.83
69715;HTU21D;56981;53.532;49.398;2023-02-15T04:46:27;-8.39;79.44
69715;HTU21D;56981;53.532;49.398;2023-02-15T04:48:53;-8.37;79.39
69715;HTU21D;56981;53.532;49.398;2023-02-15T04:51:20;-8.35;79.56
69715;HTU21D;56981;53.532;49.398;2023-02-15T04:53:46;-8.37;79.56
69715;HTU21D;56981;53.532;49.398;2023-02-15T04:56:12;-8.34;79.62
69715;HTU21D;56981;53.532;49.398;2023-02-15T04:58:38;-8.33;79.59
69715;HTU21D;56981;53.532;49.398;2023-02-15T05:01:07;-8.31;79.24
69715;HTU21D;56981;53.532;49.398;2023-02-15T05:03:34;-8.36;79.28
69715;HTU21D;56981;53.532;49.398;2023-02-15T05:06:01;-8.29;79.57
69715;HTU21D;56981;53.532;49.398;2023-02-15T05:08:27;-8.21;79.18
69715;HTU21D;56981;53.532;49.398;2023-02-15T05:10:52;-8.16;78.88
69715;HTU21D;56981;53.532;49.398;2023-02-15T05:13:19;-8.08;79.15
69715;HTU21D;56981;53.532;49.398;2023-02-15T05:15:52;-8.00;78.63
69715;HTU21D;56981;53.532;49.398;2023-02-15T05:18:20;-7.96;78.30
69715;HTU21D;56981;53.532;49.398;2023-02-15T05:20:47;-7.87;77.95
69715;HTU21D;56981;53.532;49.398;2023-02-15T05:23:13;-7.78;77.90
69715;HTU21D;56981;53.532;49.398;2023-02-15T05:25:39;-7.71;77.69
69715;HTU21D;56981;53.532;49.398;2023-02-15T05:28:27;-7.55;77.09
69715;HTU21D;56981;53.532;49.398;2023-02-15T05:33:38;-7.49;76.24
69715;HTU21D;56981;53.532;49.398;2023-02-15T05:36:04;-7.46;76.13
69715;HTU21D;56981;53.532;49.398;2023-02-15T05:38:31;-7.41;76.50
69715;HTU21D;56981;53.532;49.398;2023-02-15T05:40:57;-7.26;75.40
69715;HTU21D;56981;53.532;49.398;2023-02-15T05:43:23;-7.21;75.15
69715;HTU21D;56981;53.532;49.398;2023-02-15T05:45:52;-7.25;75.63
69715;HTU21D;56981;53.532;49.398;2023-02-15T05:48:21;-7.18;74.93
69715;HTU21D;56981;53.532;49.398;2023-02-15T05:50:57;-7.07;74.41
69715;HTU21D;56981;53.532;49.398;2023-02-15T05:53:24;-6.97;74.44
69715;HTU21D;56981;53.532;49.398;2023-02-15T05:55:49;-6.96;73.72
69715;HTU21D;56981;53.532;49.398;2023-02-15T05:58:15;-6.87;73.30
69715;HTU21D;56981;53.532;49.398;2023-02-15T06:00:41;-6.82;73.45
69715;HTU21D;56981;53.532;49.398;2023-02-15T06:03:07;-6.64;72.50
69715;HTU21D;56981;53.532;49.398;2023-02-15T06:05:33;-6.42;71.71
69715;HTU21D;56981;53.532;49.398;2023-02-15T06:07:59;-6.29;70.87
69715;HTU21D;56981;53.532;49.398;2023-02-15T06:10:25;-5.93;70.29
69715;HTU21D;56981;53.532;49.398;2023-02-15T06:12:51;-5.86;69.61
69715;HTU21D;56981;53.532;49.398;2023-02-15T06:15:17;-5.74;69.06
69715;HTU21D;56981;53.532;49.398;2023-02-15T06:17:43;-5.45;68.17
69715;HTU21D;56981;53.532;49.398;2023-02-15T06:20:10;-5.24;66.60
69715;HTU21D;56981;53.532;49.398;2023-02-15T06:22:36;-5.18;66.86
69715;HTU21D;56981;53.532;49.398;2023-02-15T06:25:02;-4.99;65.72
69715;HTU21D;56981;53.532;49.398;2023-02-15T06:27:29;-4.91;65.53
69715;HTU21D;56981;53.532;49.398;2023-02-15T06:29:55;-4.72;64.94
69715;HTU21D;56981;53.532;49.398;2023-02-15T06:32:21;-4.60;64.27
69715;HTU21D;56981;53.532;49.398;2023-02-15T06:34:47;-4.39;63.50
69715;HTU21D;56981;53.532;49.398;2023-02-15T06:37:13;-4.38;62.54
69715;HTU21D;56981;53.532;49.398;2023-02-15T06:39:38;-4.61;63.72
69715;HTU21D;56981;53.532;49.398;2023-02-15T06:42:05;-4.48;63.84
69715;HTU21D;56981;53.532;49.398;2023-02-15T06:44:31;-4.29;62.22
69715;HTU21D;56981;53.532;49.398;2023-02-15T06:46:57;-4.21;62.02
69715;HTU21D;56981;53.532;49.398;2023-02-15T06:49:23;-4.27;62.34
69715;HTU21D;56981;53.532;49.398;2023-02-15T06:51:49;-4.41;62.83
69715;HTU21D;56981;53.532;49.398;2023-02-15T06:54:15;-4.32;63.02
69715;HTU21D;56981;53.532;49.398;2023-02-15T06:56:41;-4.06;61.68
69715;HTU21D;56981;53.532;49.398;2023-02-15T06:59:07;-4.13;62.30
69715;HTU21D;56981;53.532;49.398;2023-02-15T07:01:33;-4.05;61.78
69715;HTU21D;56981;53.532;49.398;2023-02-15T07:03:59;-3.85;61.53
69715;HTU21D;56981;53.532;49.398;2023-02-15T07:06:26;-3.92;60.99
69715;HTU21D;56981;53.532;49.398;2023-02-15T07:08:52;-3.77;61.25
69715;HTU21D;56981;53.532;49.398;2023-02-15T07:11:18;-3.80;60.96
69715;HTU21D;56981;53.532;49.398;2023-02-15T07:14:02;-3.71;61.00
69715;HTU21D;56981;53.532;49.398;2023-02-15T07:16:28;-3.39;60.26
69715;HTU21D;56981;53.532;49.398;2023-02-15T07:18:54;-3.01;59.23
69715;HTU21D;56981;53.532;49.398;2023-02-15T07:21:20;-3.10;59.25
69715;HTU21D;56981;53.532;49.398;2023-02-15T07:23:46;-2.87;57.49
69715;HTU21D;56981;53.532;49.398;2023-02-15T07:26:12;-3.00;58.77
69715;HTU21D;56981;53.532;49.398;2023-02-15T07:28:38;-3.02;58.87
69715;HTU21D;56981;53.532;49.398;2023-02-15T07:31:05;-3.26;59.61
69715;HTU21D;56981;53.532;49.398;2023-02-15T07:33:32;-3.27;59.58
69715;HTU21D;56981;53.532;49.398;2023-02-15T07:36:00;-3.57;60.09
69715;HTU21D;56981;53.532;49.398;2023-02-15T07:38:33;-3.95;61.18
69715;HTU21D;56981;53.532;49.398;2023-02-15T07:41:05;-4.27;62.57
69715;HTU21D;56981;53.532;49.398;2023-02-15T07:43:33;-4.13;62.83
69715;HTU21D;56981;53.532;49.398;2023-02-15T07:46:01;-4.07;62.72
69715;HTU21D;56981;53.532;49.398;2023-02-15T07:48:27;-4.14;62.93
69715;HTU21D;56981;53.532;49.398;2023-02-15T07:50:53;-4.19;63.22
69715;HTU21D;56981;53.532;49.398;2023-02-15T07:53:19;-4.08;62.17
69715;HTU21D;56981;53.532;49.398;2023-02-15T07:55:45;-3.79;62.17
69715;HTU21D;56981;53.532;49.398;2023-02-15T07:58:11;-3.70;60.73
69715;HTU21D;56981;53.532;49.398;2023-02-15T08:00:37;-3.78;61.30
69715;HTU21D;56981;53.532;49.398;2023-02-15T08:03:26;-4.06;61.92
69715;HTU21D;56981;53.532;49.398;2023-02-15T08:05:59;-3.74;62.37
69715;HTU21D;56981;53.532;49.398;2023-02-15T08:08:26;-3.84;61.56
69715;HTU21D;56981;53.532;49.398;2023-02-15T08:14:16;-3.96;61.95
69715;HTU21D;56981;53.532;49.398;2023-02-15T08:19:21;-4.26;63.32
69715;HTU21D;56981;53.532;49.398;2023-02-15T08:21:52;-4.14;63.18
69715;HTU21D;56981;53.532;49.398;2023-02-15T08:24:21;-4.06;62.85
69715;HTU21D;56981;53.532;49.398;2023-02-15T08:26:48;-4.31;63.29
69715;HTU21D;56981;53.532;49.398;2023-02-15T08:29:16;-4.27;63.95
69715;HTU21D;56981;53.532;49.398;2023-02-15T08:31:43;-4.36;64.11
69715;HTU21D;56981;53.532;49.398;2023-02-15T08:34:11;-4.28;64.13
69715;HTU21D;56981;53.532;49.398;2023-02-15T08:36:38;-4.25;63.89
69715;HTU21D;56981;53.532;49.398;2023-02-15T08:39:05;-4.13;63.44
69715;HTU21D;56981;53.532;49.398;2023-02-15T08:41:34;-4.10;63.79
69715;HTU21D;56981;53.532;49.398;2023-02-15T08:44:02;-4.02;63.51
69715;HTU21D;56981;53.532;49.398;2023-02-15T08:46:31;-4.05;63.95
69715;HTU21D;56981;53.532;49.398;2023-02-15T08:48:58;-3.77;62.73
69715;HTU21D;56981;53.532;49.398;2023-02-15T08:51:44;-3.90;62.81
69715;HTU21D;56981;53.532;49.398;2023-02-15T08:54:14;-3.69;62.89
69715;HTU21D;56981;53.532;49.398;2023-02-15T08:56:41;-3.68;62.01
69715;HTU21D;56981;53.532;49.398;2023-02-15T08:59:13;-3.89;62.19
69715;HTU21D;56981;53.532;49.398;2023-02-15T09:01:40;-3.81;62.77
69715;HTU21D;56981;53.532;49.398;2023-02-15T09:04:07;-3.71;61.54
69715;HTU21D;56981;53.532;49.398;2023-02-15T09:06:39;-3.86;62.57
69715;HTU21D;56981;53.532;49.398;2023-02-15T09:09:06;-3.93;63.13
69715;HTU21D;56981;53.532;49.398;2023-02-15T09:11:35;-4.04;62.66
69715;HTU21D;56981;53.532;49.398;2023-02-15T09:14:04;-4.01;62.84
69715;HTU21D;56981;53.532;49.398;2023-02-15T09:16:33;-3.97;62.57
69715;HTU21D;56981;53.532;49.398;2023-02-15T09:19:00;-3.85;62.25
69715;HTU21D;56981;53.532;49.398;2023-02-15T09:21:31;-3.86;62.57
69715;HTU21D;56981;53.532;49.398;2023-02-15T09:23:59;-3.82;61.94
69715;HTU21D;56981;53.532;49.398;2023-02-15T09:26:27;-3.87;61.87
69715;HTU21D;56981;53.532;49.398;2023-02-15T09:28:56;-4.11;62.69
69715;HTU21D;56981;53.532;49.398;2023-02-15T09:31:28;-4.07;63.23
69715;HTU21D;56981;53.532;49.398;2023-02-15T09:33:54;-4.16;62.90
69715;HTU21D;56981;53.532;49.398;2023-02-15T09:39:18;-4.44;64.18
69715;HTU21D;56981;53.532;49.398;2023-02-15T09:47:22;-4.27;63.73
69715;HTU21D;56981;53.532;49.398;2023-02-15T09:58:13;-3.97;62.76
69715;HTU21D;56981;53.532;49.398;2023-02-15T10:03:46;-3.92;62.35
69715;HTU21D;56981;53.532;49.398;2023-02-15T10:06:36;-3.96;62.09
69715;HTU21D;56981;53.532;49.398;2023-02-15T10:12:02;-4.19;62.68
69715;HTU21D;56981;53.532;49.398;2023-02-15T10:17:33;-4.45;63.98
69715;HTU21D;56981;53.532;49.398;2023-02-15T10:22:57;-4.32;63.60
69715;HTU21D;56981;53.532;49.398;2023-02-15T10:25:41;-4.25;63.50
69715;HTU21D;56981;53.532;49.398;2023-02-15T10:31:17;-4.24;63.45
69715;HTU21D;56981;53.532;49.398;2023-02-15T10:33:48;-4.07;63.05
69715;HTU21D;56981;53.532;49.398;2023-02-15T10:36:36;-4.16;62.87
69715;HTU21D;56981;53.532;49.398;2023-02-15T10:39:26;-3.98;63.02
69715;HTU21D;56981;53.532;49.398;2023-02-15T10:48:37;-3.86;61.58
69715;HTU21D;56981;53.532;49.398;2023-02-15T10:50:50;-3.93;61.81
69715;HTU21D;56981;53.532;49.398;2023-02-15T11:01:43;-4.09;63.27
69715;HTU21D;56981;53.532;49.398;2023-02-15T11:07:02;-4.24;63.95
69715;HTU21D;56981;53.532;49.398;2023-02-15T11:09:33;-4.15;63.55
69715;HTU21D;56981;53.532;49.398;2023-02-15T11:12:02;-3.90;63.06
69715;HTU21D;56981;53.532;49.398;2023-02-15T11:17:04;-4.07;63.18
69715;HTU21D;56981;53.532;49.398;2023-02-15T11:19:35;-4.06;63.41
69715;HTU21D;56981;53.532;49.398;2023-02-15T11:22:09;-4.15;63.53
69715;HTU21D;56981;53.532;49.398;2023-02-15T11:24:43;-4.29;64.85
69715;HTU21D;56981;53.532;49.398;2023-02-15T11:30:01;-4.43;65.56
69715;HTU21D;56981;53.532;49.398;2023-02-15T11:32:40;-4.52;66.45
69715;HTU21D;56981;53.532;49.398;2023-02-15T11:37:58;-4.57;66.67
69715;HTU21D;56981;53.532;49.398;2023-02-15T11:40:30;-4.75;67.51
69715;HTU21D;56981;53.532;49.398;2023-02-15T11:43:02;-4.86;67.95
69715;HTU21D;56981;53.532;49.398;2023-02-15T11:45:31;-4.98;68.31
69715;HTU21D;56981;53.532;49.398;2023-02-15T11:47:59;-4.90;68.42
69715;HTU21D;56981;53.532;49.398;2023-02-15T11:50:31;-4.90;68.28
69715;HTU21D;56981;53.532;49.398;2023-02-15T11:53:09;-4.98;68.09
69715;HTU21D;56981;53.532;49.398;2023-02-15T11:55:36;-5.02;68.64
69715;HTU21D;56981;53.532;49.398;2023-02-15T12:01:07;-4.96;68.62
69715;HTU21D;56981;53.532;49.398;2023-02-15T12:03:44;-5.04;68.39
69715;HTU21D;56981;53.532;49.398;2023-02-15T12:09:06;-5.26;68.91
69715;HTU21D;56981;53.532;49.398;2023-02-15T12:11:38;-5.22;68.20
69715;HTU21D;56981;53.532;49.398;2023-02-15T12:14:08;-5.24;68.27
69715;HTU21D;56981;53.532;49.398;2023-02-15T12:16:42;-5.16;68.04
69715;HTU21D;56981;53.532;49.398;2023-02-15T12:19:31;-5.27;68.00
69715;HTU21D;56981;53.532;49.398;2023-02-15T12:22:01;-5.43;68.91
69715;HTU21D;56981;53.532;49.398;2023-02-15T12:24:30;-5.58;69.00
69715;HTU21D;56981;53.532;49.398;2023-02-15T12:29:34;-5.73;69.81
69715;HTU21D;56981;53.532;49.398;2023-02-15T12:32:00;-5.78;70.63
69715;HTU21D;56981;53.532;49.398;2023-02-15T12:34:32;-5.83;70.45
69715;HTU21D;56981;53.532;49.398;2023-02-15T12:37:18;-5.92;70.74
69715;HTU21D;56981;53.532;49.398;2023-02-15T12:40:21;-6.00;71.61
69715;HTU21D;56981;53.532;49.398;2023-02-15T12:42:47;-6.06;71.50
69715;HTU21D;56981;53.532;49.398;2023-02-15T12:50:45;-6.31;72.85
69715;HTU21D;56981;53.532;49.398;2023-02-15T12:53:18;-6.43;72.89
69715;HTU21D;56981;53.532;49.398;2023-02-15T12:56:01;-6.51;73.00
69715;HTU21D;56981;53.532;49.398;2023-02-15T12:58:28;-6.58;72.99
69715;HTU21D;56981;53.532;49.398;2023-02-15T13:01:22;-6.63;73.34
69715;HTU21D;56981;53.532;49.398;2023-02-15T13:04:23;-6.68;73.31
69715;HTU21D;56981;53.532;49.398;2023-02-15T13:06:52;-6.81;73.48
69715;HTU21D;56981;53.532;49.398;2023-02-15T13:09:38;-6.86;73.65
69715;HTU21D;56981;53.532;49.398;2023-02-15T13:12:18;-6.87;73.50
69715;HTU21D;56981;53.532;49.398;2023-02-15T13:14:48;-6.87;73.61
69715;HTU21D;56981;53.532;49.398;2023-02-15T13:17:20;-6.88;73.38
69715;HTU21D;56981;53.532;49.398;2023-02-15T13:19:51;-6.97;74.11
69715;HTU21D;56981;53.532;49.398;2023-02-15T13:22:39;-6.98;74.22
69715;HTU21D;56981;53.532;49.398;2023-02-15T13:25:22;-7.00;74.63
69715;HTU21D;56981;53.532;49.398;2023-02-15T13:27:53;-7.06;75.20
69715;HTU21D;56981;53.532;49.398;2023-02-15T13:30:26;-7.09;75.63
69715;HTU21D;56981;53.532;49.398;2023-02-15T13:32:57;-7.15;75.96
69715;HTU21D;56981;53.532;49.398;2023-02-15T13:35:26;-7.11;76.36
69715;HTU21D;56981;53.532;49.398;2023-02-15T13:43:24;-7.20;77.16
69715;HTU21D;56981;53.532;49.398;2023-02-15T13:48:59;-7.25;77.94
69715;HTU21D;56981;53.532;49.398;2023-02-15T13:57:35;-7.31;79.39
69715;HTU21D;56981;53.532;49.398;2023-02-15T14:00:26;-7.32;79.59
69715;HTU21D;56981;53.532;49.398;2023-02-15T14:03:08;-7.32;79.96
69715;HTU21D;56981;53.532;49.398;2023-02-15T14:14:29;-7.42;80.69
69715;HTU21D;56981;53.532;49.398;2023-02-15T14:17:14;-7.46;81.24
69715;HTU21D;56981;53.532;49.398;2023-02-15T14:20:21;-7.47;81.23
69715;HTU21D;56981;53.532;49.398;2023-02-15T14:25:51;-7.41;81.91
69715;HTU21D;56981;53.532;49.398;2023-02-15T14:31:48;-7.44;82.29
69715;HTU21D;56981;53.532;49.398;2023-02-15T14:34:41;-7.42;81.93
69715;HTU21D;56981;53.532;49.398;2023-02-15T14:37:15;-7.48;82.04
69715;HTU21D;56981;53.532;49.398;2023-02-15T14:43:19;-7.56;82.43
69715;HTU21D;56981;53.532;49.398;2023-02-15T14:48:50;-7.56;82.39
69715;HTU21D;56981;53.532;49.398;2023-02-15T14:54:09;-7.66;82.64
69715;HTU21D;56981;53.532;49.398;2023-02-15T14:56:36;-7.65;82.55
69715;HTU21D;56981;53.532;49.398;2023-02-15T15:01:50;-7.67;82.49
69715;HTU21D;56981;53.532;49.398;2023-02-15T15:04:40;-7.70;82.13
69715;HTU21D;56981;53.532;49.398;2023-02-15T15:07:35;-7.71;82.11
69715;HTU21D;56981;53.532;49.398;2023-02-15T15:16:28;-7.76;81.90
69715;HTU21D;56981;53.532;49.398;2023-02-15T15:18:58;-7.83;82.09
69715;HTU21D;56981;53.532;49.398;2023-02-15T15:47:00;-7.94;82.14
69715;HTU21D;56981;53.532;49.398;2023-02-15T15:49:32;-7.95;82.07
69715;HTU21D;56981;53.532;49.398;2023-02-15T15:52:03;-7.94;82.17
69715;HTU21D;56981;53.532;49.398;2023-02-15T15:54:29;-7.87;81.73
69715;HTU21D;56981;53.532;49.398;2023-02-15T15:57:00;-7.90;81.49
69715;HTU21D;56981;53.532;49.398;2023-02-15T15:59:29;-7.89;81.82
69715;HTU21D;56981;53.532;49.398;2023-02-15T16:02:02;-7.89;81.72
69715;HTU21D;56981;53.532;49.398;2023-02-15T16:04:34;-7.83;81.57
69715;HTU21D;56981;53.532;49.398;2023-02-15T16:12:23;-7.93;81.77
69715;HTU21D;56981;53.532;49.398;2023-02-15T16:14:49;-7.94;81.54
69715;HTU21D;56981;53.532;49.398;2023-02-15T16:17:21;-7.93;81.52
69715;HTU21D;56981;53.532;49.398;2023-02-15T16:19:48;-7.95;81.69
69715;HTU21D;56981;53.532;49.398;2023-02-15T16:22:23;-7.93;81.36
69715;HTU21D;56981;53.532;49.398;2023-02-15T16:27:44;-8.00;81.84
69715;HTU21D;56981;53.532;49.398;2023-02-15T16:32:46;-7.94;81.75
69715;HTU21D;56981;53.532;49.398;2023-02-15T16:35:20;-7.93;81.35
69715;HTU21D;56981;53.532;49.398;2023-02-15T16:37:46;-7.91;81.43
69715;HTU21D;56981;53.532;49.398;2023-02-15T16:43:18;-7.91;81.33
69715;HTU21D;56981;53.532;49.398;2023-02-15T16:45:46;-7.91;81.43
69715;HTU21D;56981;53.532;49.398;2023-02-15T16:48:24;-7.93;81.47
69715;HTU21D;56981;53.532;49.398;2023-02-15T16:50:56;-7.91;81.63
69715;HTU21D;56981;53.532;49.398;2023-02-15T16:53:27;-7.94;81.57
69715;HTU21D;56981;53.532;49.398;2023-02-15T16:55:59;-7.91;81.72
69715;HTU21D;56981;53.532;49.398;2023-02-15T16:58:47;-7.93;81.33
69715;HTU21D;56981;53.532;49.398;2023-02-15T17:01:15;-7.96;81.71
69715;HTU21D;56981;53.532;49.398;2023-02-15T17:03:42;-7.99;81.54
69715;HTU21D;56981;53.532;49.398;2023-02-15T17:06:26;-7.95;81.78
69715;HTU21D;56981;53.532;49.398;2023-02-15T17:09:03;-7.96;81.81
69715;HTU21D;56981;53.532;49.398;2023-02-15T17:11:36;-8.01;81.85
69715;HTU21D;56981;53.532;49.398;2023-02-15T17:16:34;-8.04;81.67
69715;HTU21D;56981;53.532;49.398;2023-02-15T17:19:02;-8.01;81.88
69715;HTU21D;56981;53.532;49.398;2023-02-15T17:21:37;-8.04;81.64
69715;HTU21D;56981;53.532;49.398;2023-02-15T17:24:06;-8.06;81.88
69715;HTU21D;56981;53.532;49.398;2023-02-15T17:26:36;-8.07;81.68
69715;HTU21D;56981;53.532;49.398;2023-02-15T17:30:14;-8.10;81.55
69715;HTU21D;56981;53.532;49.398;2023-02-15T17:32:16;-8.12;81.82
69715;HTU21D;56981;53.532;49.398;2023-02-15T17:40:26;-8.18;82.17
69715;HTU21D;56981;53.532;49.398;2023-02-15T17:42:52;-8.19;81.82
69715;HTU21D;56981;53.532;49.398;2023-02-15T17:45:20;-8.25;82.00
69715;HTU21D;56981;53.532;49.398;2023-02-15T17:47:47;-8.34;82.31
69715;HTU21D;56981;53.532;49.398;2023-02-15T17:50:22;-8.35;82.55
69715;HTU21D;56981;53.532;49.398;2023-02-15T17:52:50;-8.35;82.71
69715;HTU21D;56981;53.532;49.398;2023-02-15T17:55:19;-8.33;82.72
69715;HTU21D;56981;53.532;49.398;2023-02-15T17:58:04;-8.36;82.71
69715;HTU21D;56981;53.532;49.398;2023-02-15T18:00:30;-8.39;83.12
69715;HTU21D;56981;53.532;49.398;2023-02-15T18:03:16;-8.36;83.04
69715;HTU21D;56981;53.532;49.398;2023-02-15T18:06:01;-8.34;82.97
69715;HTU21D;56981;53.532;49.398;2023-02-15T18:08:46;-8.31;82.94
69715;HTU21D;56981;53.532;49.398;2023-02-15T18:11:30;-8.31;83.02
69715;HTU21D;56981;53.532;49.398;2023-02-15T18:14:09;-8.33;83.08
69715;HTU21D;56981;53.532;49.398;2023-02-15T18:16:40;-8.29;83.26
69715;HTU21D;56981;53.532;49.398;2023-02-15T18:19:22;-8.26;83.12
69715;HTU21D;56981;53.532;49.398;2023-02-15T18:21:49;-8.25;82.93
69715;HTU21D;56981;53.532;49.398;2023-02-15T18:24:24;-8.24;83.07
69715;HTU21D;56981;53.532;49.398;2023-02-15T18:26:52;-8.24;82.94
69715;HTU21D;56981;53.532;49.398;2023-02-15T18:29:19;-8.25;83.04
69715;HTU21D;56981;53.532;49.398;2023-02-15T18:31:48;-8.26;83.09
69715;HTU21D;56981;53.532;49.398;2023-02-15T18:34:31;-8.24;83.34
69715;HTU21D;56981;53.532;49.398;2023-02-15T18:37:02;-8.22;83.26
69715;HTU21D;56981;53.532;49.398;2023-02-15T18:39:40;-8.24;83.09
69715;HTU21D;56981;53.532;49.398;2023-02-15T18:44:43;-8.22;83.00
69715;HTU21D;56981;53.532;49.398;2023-02-15T18:47:09;-8.25;82.90
69715;HTU21D;56981;53.532;49.398;2023-02-15T18:49:35;-8.26;83.10